WetterOnline ( https://www.wetteronline.de )

Wetter aktuell Ostingersleben

Aktuelles Wetter: Ummendorf (163m)

6-stündlich | Neueste Meldungen
Ortszeit Temperatur Wetter
Fr, 28.01. 19:00 3.4° C bedeckt
Fr, 28.01. 13:00 5.1° C wolkig
Fr, 28.01. 7:00 2.9° C leicht bewölkt
Fr, 28.01. 1:00 3.9° C bewölkt
Do, 27.01. 19:00 5.2° C leicht bewölkt
Do, 27.01. 13:00 3.5° C bewölkt
Do, 27.01. 7:00 2.3° C bewölkt
Do, 27.01. 1:00 2.2° C bedeckt
Ortszeit Temperatur Wetter
Sa, 29.01. 0:00 2.2° C wolkig
Fr, 28.01. 23:50 2.2° C wolkig
Fr, 28.01. 23:40 2.5° C bedeckt
Fr, 28.01. 23:30 2.6° C bewölkt
Fr, 28.01. 23:20 2.6° C bewölkt
Fr, 28.01. 23:10 2.7° C bewölkt
Fr, 28.01. 23:00 2.7° C bewölkt
Fr, 28.01. 22:30 2.7° C bewölkt
Fr, 28.01. 22:00 2.6° C bedeckt
Fr, 28.01. 21:30 2.5° C bewölkt
Fr, 28.01. 21:00 3.3° C bewölkt
Ortszeit Relative Feuchte Sichtweite
Fr, 28.01. 19:00 74% 26 km
Fr, 28.01. 13:00 68% 35 km
Fr, 28.01. 7:00 81% 30 km
Fr, 28.01. 1:00 78% 35 km
Do, 27.01. 19:00 84% 50 km
Do, 27.01. 13:00 94% 4.9 km
Do, 27.01. 7:00 81% 13 km
Do, 27.01. 1:00 92% 8 km
Ortszeit Relative Feuchte Sichtweite
Sa, 29.01. 0:00 82% 25 km
Fr, 28.01. 23:50 82% -
Fr, 28.01. 23:40 80% -
Fr, 28.01. 23:30 79% 27 km
Fr, 28.01. 23:20 79% -
Fr, 28.01. 23:10 79% -
Fr, 28.01. 23:00 79% 25 km
Fr, 28.01. 22:30 79% 26 km
Fr, 28.01. 22:00 80% 23 km
Fr, 28.01. 21:30 80% 27 km
Fr, 28.01. 21:00 76% 27 km
Ortszeit Niederschlagsmenge Niederschlagsart
Fr, 28.01. 19:00 0.2 l/m2 in 12 Std. -
Fr, 28.01. 13:00 0.2 l/m2 in 6 Std. Regen
Fr, 28.01. 7:00 0.1 l/m2 in 12 Std. Regen
Fr, 28.01. 1:00 0.1 l/m2 in 6 Std. Regen
Do, 27.01. 19:00 2 l/m2 in 12 Std. Regen
Do, 27.01. 13:00 0.1 l/m2 in 6 Std. -
Do, 27.01. 7:00 0.0 l/m2 in 12 Std. -
Do, 27.01. 1:00 0.0 l/m2 in 6 Std. -
Ortszeit Niederschlagsmenge Niederschlagsart
Sa, 29.01. 0:00 0.0 l/m2 in 1 Std. -
Fr, 28.01. 23:50 keine Meldung -
Fr, 28.01. 23:40 keine Meldung -
Fr, 28.01. 23:30 0.0 l/m2 in 1 Std. -
Fr, 28.01. 23:20 keine Meldung -
Fr, 28.01. 23:10 keine Meldung -
Fr, 28.01. 23:00 0.0 l/m2 in 1 Std. -
Fr, 28.01. 22:30 0.0 l/m2 in 1 Std. -
Fr, 28.01. 22:00 0.0 l/m2 in 1 Std. -
Fr, 28.01. 21:30 0.0 l/m2 in 1 Std. -
Fr, 28.01. 21:00 0.0 l/m2 in 1 Std. -
Ortszeit Stärke Spitze Richtung
km/h Bft. km/h Grad Sektor
Fr, 28.01. 19:00 22 4 54 290° W
Fr, 28.01. 13:00 31 5 61 300° NW
Fr, 28.01. 7:00 41 6 80 290° W
Fr, 28.01. 1:00 43 6 76 290° W
Do, 27.01. 19:00 36 5 58 280° W
Do, 27.01. 13:00 43 6 76 260° W
Do, 27.01. 7:00 48 6 65 260° W
Do, 27.01. 1:00 31 5 44 260° W
Ortszeit Stärke Spitze Richtung
km/h Bft. km/h Grad Sektor
Sa, 29.01. 0:00 14 3 29 240° SW
Fr, 28.01. 23:50 14 3 - 240° SW
Fr, 28.01. 23:40 18 3 - 250° W
Fr, 28.01. 23:30 22 4 29 250° W
Fr, 28.01. 23:20 22 4 - 250° W
Fr, 28.01. 23:10 24 4 - 250° W
Fr, 28.01. 23:00 22 4 31 250° W
Fr, 28.01. 22:30 19 3 24 250° W
Fr, 28.01. 22:00 17 3 22 260° W
Fr, 28.01. 21:30 15 3 20 260° W
Fr, 28.01. 21:00 14 3 29 270° W
Ortszeit Untergrenze Bedeckung Gattung
total tief tief mittel hoch
Fr, 28.01. 19:00 3300 m 8/8 8/8 - - -
Fr, 28.01. 13:00 960 m 6/8 6/8 - - -
Fr, 28.01. 7:00 540 m 4/8 4/8 - - -
Fr, 28.01. 1:00 660 m 7/8 7/8 - - -
Do, 27.01. 19:00 540 m 3/8 3/8 - - -
Do, 27.01. 13:00 210 m 7/8 7/8 - - -
Do, 27.01. 7:00 510 m 7/8 7/8 - - -
Do, 27.01. 1:00 240 m 8/8 8/8 - - -
Ortszeit Bedeckungsgrad in Achtel und Wolkenuntergrenze
Sa, 29.01. 0:00 3(2400m) 8(3300m)
Fr, 28.01. 23:50 3(2400m) 8(3300m)
Fr, 28.01. 23:40 8
Fr, 28.01. 23:30 7(2400m) 7(3300m) 7(4200m)
Fr, 28.01. 23:20 7(2400m) 7(3300m) 7(4200m)
Fr, 28.01. 23:10 7
Fr, 28.01. 23:00 7(2400m) 7(2700m)
Fr, 28.01. 22:30 7(2400m) 7(3000m) 8(3900m)
Fr, 28.01. 22:00 8(2700m) 8(3300m)
Fr, 28.01. 21:30 7(3000m) 7(3900m) 7(5100m)
Fr, 28.01. 21:00 7(3300m)
Ortszeit Luftdruck NN (hPa) Tendenz (hPa in 3 Std.)
Fr, 28.01. 19:00 1032 + 1,2
Fr, 28.01. 13:00 1029 + 2,3
Fr, 28.01. 7:00 1024 + 2,2
Fr, 28.01. 1:00 1019 + 1,6
Do, 27.01. 19:00 1016 + 0,2
Do, 27.01. 13:00 1017 - 1,1
Do, 27.01. 7:00 1020 - 2,4
Do, 27.01. 1:00 1025 - 1,5
Ortszeit Luftdruck NN (hPa) Tendenz (hPa in 3 Std.)
Sa, 29.01. 0:00 1029 - 2,1
Fr, 28.01. 23:50 1029 keine Meldung
Fr, 28.01. 23:40 1029 keine Meldung
Fr, 28.01. 23:30 1030 - 1,7
Fr, 28.01. 23:20 1030 keine Meldung
Fr, 28.01. 23:10 1030 keine Meldung
Fr, 28.01. 23:00 1030 - 1,4
Fr, 28.01. 22:30 1030 - 1,6
Fr, 28.01. 22:00 1031 - 1,1
Fr, 28.01. 21:30 1031 - 0,7
Fr, 28.01. 21:00 1031 - 0,2
Ortszeit Schneehöhe (cm)
Fr, 28.01. 19:00 0
Fr, 28.01. 13:00 0
Fr, 28.01. 7:00 0
Fr, 28.01. 1:00 0
Do, 27.01. 19:00 0
Do, 27.01. 13:00 0
Do, 27.01. 7:00 0
Do, 27.01. 1:00 0
Ortszeit Schneehöhe (cm)
Sa, 29.01. 0:00 0
Fr, 28.01. 23:50 0
Fr, 28.01. 23:40 0
Fr, 28.01. 23:30 0
Fr, 28.01. 23:20 0
Fr, 28.01. 23:10 0
Fr, 28.01. 23:00 0
Fr, 28.01. 22:30 0
Fr, 28.01. 22:00 0
Fr, 28.01. 21:30 0
Fr, 28.01. 21:00 0
Link zu dieser Seite / Seite empfehlen

Das Wetter in ...